Time;durP1;ratioP1;P1;durP2;ratioP2;P2;SDS_P1;SDS_P2;PMS_P1;PMS_P2;Temp;Humidity;BMP_temperature;BMP_pressure;BME280_temperature;BME280_humidity;BME280_pressure;Samples;Min_cycle;Max_cycle;Signal;HPM_P1;HPM_P2
2022/03/08 00:02:23;;;;;;;29.90;21.20;;;;;;;;;;5059627;28;20033;-69
2022/03/08 00:05:09;;;;;;;28.92;19.67;;;;;;;;;;5021691;28;20460;-70
2022/03/08 00:07:55;;;;;;;30.77;20.92;;;;;;;;;;5047868;28;20123;-69
2022/03/08 00:10:40;;;;;;;27.48;20.08;;;;;;;;;;5063257;28;20095;-65
2022/03/08 00:13:25;;;;;;;31.75;19.95;;;;;;;;;;5044826;28;20066;-69
2022/03/08 00:16:11;;;;;;;30.15;22.13;;;;;;;;;;5057286;28;20391;-69
2022/03/08 00:18:56;;;;;;;28.05;19.65;;;;;;;;;;5055091;28;20387;-68
2022/03/08 00:21:42;;;;;;;27.02;18.77;;;;;;;;;;5057719;28;20028;-68
2022/03/08 00:24:27;;;;;;;31.10;20.35;;;;;;;;;;5065218;28;20427;-68
2022/03/08 00:27:12;;;;;;;29.33;20.70;;;;;;;;;;5049098;28;20071;-69
2022/03/08 00:29:58;;;;;;;27.80;20.42;;;;;;;;;;5053276;28;20044;-62
2022/03/08 00:32:43;;;;;;;29.58;19.58;;;;;;;;;;5063673;28;20017;-62
2022/03/08 00:35:29;;;;;;;26.80;19.40;;;;;;;;;;5053671;28;20040;-63
2022/03/08 00:38:15;;;;;;;27.90;19.80;;;;;;;;;;5052969;28;20223;-63
2022/03/08 00:41:02;;;;;;;30.83;19.88;;;;;;;;;;5056271;28;20450;-61
2022/03/08 00:43:47;;;;;;;29.48;19.48;;;;;;;;;;5043499;28;20043;-64
2022/03/08 00:46:32;;;;;;;29.17;19.75;;;;;;;;;;5058226;28;20111;-65
2022/03/08 00:49:17;;;;;;;26.95;18.35;;;;;;;;;;5052610;28;20402;-66
2022/03/08 00:52:03;;;;;;;33.72;20.15;;;;;;;;;;5053998;28;20036;-65
2022/03/08 00:54:48;;;;;;;27.42;18.50;;;;;;;;;;5042760;28;20044;-67
2022/03/08 00:57:34;;;;;;;26.08;18.50;;;;;;;;;;5057729;28;20025;-67
2022/03/08 01:00:21;;;;;;;26.98;19.60;;;;;;;;;;5052890;28;20032;-66
2022/03/08 01:03:06;;;;;;;24.40;17.13;;;;;;;;;;5053726;28;20036;-65
2022/03/08 01:09:14;;;;;;;26.73;18.05;;;;;;;;;;5062129;28;20563;-68
2022/03/08 01:11:59;;;;;;;30.38;19.95;;;;;;;;;;5023161;28;20029;-69
2022/03/08 01:14:45;;;;;;;25.45;18.02;;;;;;;;;;5067699;28;20162;-68
2022/03/08 01:17:30;;;;;;;28.52;20.10;;;;;;;;;;5057995;28;20221;-67
2022/03/08 01:20:16;;;;;;;29.90;19.17;;;;;;;;;;5049551;28;20029;-69
2022/03/08 01:23:01;;;;;;;28.77;20.73;;;;;;;;;;5035474;28;20036;-63
2022/03/08 01:25:46;;;;;;;23.85;17.85;;;;;;;;;;5052404;28;20028;-68
2022/03/08 01:28:32;;;;;;;26.17;17.85;;;;;;;;;;5039362;28;20107;-69
2022/03/08 01:31:18;;;;;;;29.65;18.98;;;;;;;;;;5039701;28;20111;-68
2022/03/08 01:34:03;;;;;;;27.10;19.45;;;;;;;;;;5053147;28;20031;-66
2022/03/08 01:36:49;;;;;;;25.45;17.45;;;;;;;;;;5052795;28;20078;-69
2022/03/08 01:39:34;;;;;;;25.63;17.85;;;;;;;;;;5041493;28;20036;-69
2022/03/08 01:42:21;;;;;;;23.83;17.15;;;;;;;;;;5051591;28;20108;-63
2022/03/08 01:45:06;;;;;;;30.63;18.70;;;;;;;;;;5056697;28;20091;-68
2022/03/08 01:47:52;;;;;;;27.17;18.98;;;;;;;;;;5045537;28;20250;-68
2022/03/08 01:50:37;;;;;;;26.25;18.55;;;;;;;;;;5052044;28;20035;-68
2022/03/08 01:53:22;;;;;;;27.23;18.33;;;;;;;;;;5026760;28;20432;-69
2022/03/08 01:56:08;;;;;;;28.73;18.10;;;;;;;;;;5056524;28;20387;-67
2022/03/08 01:58:53;;;;;;;27.10;18.05;;;;;;;;;;5045689;28;20136;-66
2022/03/08 02:01:39;;;;;;;27.92;17.75;;;;;;;;;;5053852;28;20025;-66
2022/03/08 02:04:24;;;;;;;26.33;18.33;;;;;;;;;;5035772;28;20024;-67
2022/03/08 02:07:10;;;;;;;27.08;17.48;;;;;;;;;;5059554;28;20028;-67
2022/03/08 02:09:55;;;;;;;26.35;17.48;;;;;;;;;;5052958;28;20475;-67
2022/03/08 02:12:40;;;;;;;28.83;17.85;;;;;;;;;;5051568;28;20062;-68
2022/03/08 02:15:27;;;;;;;26.40;18.08;;;;;;;;;;5055941;28;20028;-67
2022/03/08 02:18:12;;;;;;;25.02;17.17;;;;;;;;;;5058487;28;20035;-67
2022/03/08 02:21:07;;;;;;;25.55;17.80;;;;;;;;;;5052304;28;20044;-61
2022/03/08 02:23:53;;;;;;;25.55;17.95;;;;;;;;;;5037592;28;20033;-60
2022/03/08 02:26:38;;;;;;;24.83;17.67;;;;;;;;;;5055880;28;20029;-61
2022/03/08 02:29:23;;;;;;;25.95;17.60;;;;;;;;;;5037494;28;20049;-62
2022/03/08 02:32:08;;;;;;;26.42;18.67;;;;;;;;;;5051083;28;20103;-61
2022/03/08 02:34:54;;;;;;;28.20;17.90;;;;;;;;;;5052437;28;20035;-64
2022/03/08 02:37:40;;;;;;;26.67;18.33;;;;;;;;;;5034584;28;20096;-64
2022/03/08 02:40:27;;;;;;;30.17;18.67;;;;;;;;;;5042221;28;20387;-61
2022/03/08 02:43:12;;;;;;;27.25;18.08;;;;;;;;;;5048341;28;20032;-64
2022/03/08 02:45:57;;;;;;;28.92;18.23;;;;;;;;;;5050705;28;20028;-61
2022/03/08 02:48:43;;;;;;;30.13;18.02;;;;;;;;;;5052191;28;20032;-61
2022/03/08 02:51:28;;;;;;;28.48;19.45;;;;;;;;;;5058269;28;20279;-61
2022/03/08 02:54:13;;;;;;;30.63;19.80;;;;;;;;;;5057491;28;20376;-70
2022/03/08 02:56:58;;;;;;;26.70;18.08;;;;;;;;;;5073074;28;20440;-68
2022/03/08 02:59:44;;;;;;;26.73;17.98;;;;;;;;;;5034798;28;20047;-60
2022/03/08 03:02:29;;;;;;;25.52;17.40;;;;;;;;;;5051119;28;20383;-61
2022/03/08 03:05:14;;;;;;;25.35;16.38;;;;;;;;;;5065313;28;20100;-61
2022/03/08 03:08:00;;;;;;;29.88;17.73;;;;;;;;;;5052400;28;20032;-63
2022/03/08 03:10:45;;;;;;;28.10;16.75;;;;;;;;;;5050455;28;20028;-64
2022/03/08 03:13:30;;;;;;;24.85;17.30;;;;;;;;;;5051877;28;20154;-62
2022/03/08 03:16:15;;;;;;;29.88;18.83;;;;;;;;;;5046611;28;20036;-63
2022/03/08 03:19:01;;;;;;;25.55;17.75;;;;;;;;;;5050264;28;20388;-62
2022/03/08 03:21:46;;;;;;;27.17;18.33;;;;;;;;;;5057153;28;20025;-64
2022/03/08 03:24:31;;;;;;;25.40;16.73;;;;;;;;;;5051770;28;20036;-63
2022/03/08 03:27:16;;;;;;;37.83;18.67;;;;;;;;;;5035452;28;20056;-62
2022/03/08 03:30:06;;;;;;;26.98;17.58;;;;;;;;;;5050001;28;20033;-63
2022/03/08 03:32:51;;;;;;;27.17;17.48;;;;;;;;;;5050234;28;20031;-67
2022/03/08 03:35:37;;;;;;;25.92;16.92;;;;;;;;;;5059879;28;20035;-65
2022/03/08 03:38:22;;;;;;;27.90;17.42;;;;;;;;;;5043879;28;20065;-67
2022/03/08 03:41:07;;;;;;;27.73;17.52;;;;;;;;;;5047710;28;20430;-67
2022/03/08 03:43:52;;;;;;;27.70;16.80;;;;;;;;;;5055839;28;20056;-70
2022/03/08 03:46:38;;;;;;;29.27;18.02;;;;;;;;;;5045036;28;20029;-68
2022/03/08 03:49:23;;;;;;;26.25;17.05;;;;;;;;;;5054813;28;20036;-64
2022/03/08 03:52:08;;;;;;;27.00;16.65;;;;;;;;;;5055712;28;20211;-65
2022/03/08 03:54:54;;;;;;;25.83;16.63;;;;;;;;;;5047889;28;20039;-64
2022/03/08 03:57:39;;;;;;;24.27;16.38;;;;;;;;;;5053346;28;20492;-62
2022/03/08 04:00:24;;;;;;;26.35;16.35;;;;;;;;;;5054529;28;20032;-65
2022/03/08 04:03:09;;;;;;;26.90;16.23;;;;;;;;;;5057690;28;20025;-62
2022/03/08 04:05:55;;;;;;;25.55;16.95;;;;;;;;;;5067666;28;20044;-63
2022/03/08 04:08:40;;;;;;;25.80;16.95;;;;;;;;;;5054467;28;20479;-63
2022/03/08 04:11:25;;;;;;;25.50;16.33;;;;;;;;;;5053964;28;20032;-62
2022/03/08 04:14:10;;;;;;;22.35;15.40;;;;;;;;;;5066533;28;20032;-62
2022/03/08 04:16:56;;;;;;;27.27;16.95;;;;;;;;;;5057891;28;20178;-63
2022/03/08 04:19:42;;;;;;;25.75;16.70;;;;;;;;;;5034894;28;20121;-64
2022/03/08 04:22:27;;;;;;;24.58;16.27;;;;;;;;;;5045751;28;20033;-64
2022/03/08 04:25:12;;;;;;;27.02;18.73;;;;;;;;;;5046110;28;20210;-66
2022/03/08 04:27:58;;;;;;;26.42;16.58;;;;;;;;;;5057525;28;20044;-62
2022/03/08 04:30:43;;;;;;;27.30;16.95;;;;;;;;;;5053921;28;20231;-65
2022/03/08 04:33:28;;;;;;;24.13;15.82;;;;;;;;;;5054641;28;20028;-66
2022/03/08 04:36:13;;;;;;;26.42;16.88;;;;;;;;;;5053711;28;20032;-66
2022/03/08 04:38:59;;;;;;;24.08;16.42;;;;;;;;;;5053403;28;20039;-66
2022/03/08 04:41:44;;;;;;;26.83;16.42;;;;;;;;;;5039104;28;20067;-65
2022/03/08 04:44:29;;;;;;;28.50;17.27;;;;;;;;;;5054191;28;20040;-68
2022/03/08 04:47:14;;;;;;;26.50;17.75;;;;;;;;;;5058932;28;21309;-65
2022/03/08 04:50:00;;;;;;;25.17;17.08;;;;;;;;;;5055012;28;20496;-67
2022/03/08 04:52:46;;;;;;;26.08;16.45;;;;;;;;;;5053457;28;20100;-66
2022/03/08 04:55:32;;;;;;;25.33;16.67;;;;;;;;;;5053469;28;20032;-65
2022/03/08 04:58:17;;;;;;;30.95;18.73;;;;;;;;;;5074353;28;20223;-64
2022/03/08 05:01:02;;;;;;;25.95;16.65;;;;;;;;;;5053793;28;20032;-65
2022/03/08 05:03:49;;;;;;;23.80;16.65;;;;;;;;;;5053055;28;20028;-62
2022/03/08 05:06:34;;;;;;;27.50;17.83;;;;;;;;;;5039809;28;20171;-65
2022/03/08 05:09:20;;;;;;;28.23;18.25;;;;;;;;;;5055602;28;20442;-65
2022/03/08 05:12:05;;;;;;;26.52;17.35;;;;;;;;;;5067500;28;20065;-64
2022/03/08 05:14:50;;;;;;;25.77;17.52;;;;;;;;;;5057011;28;20021;-63
2022/03/08 05:17:36;;;;;;;26.65;16.27;;;;;;;;;;5068302;28;20063;-66
2022/03/08 05:20:21;;;;;;;28.88;17.63;;;;;;;;;;5044862;28;20056;-65
2022/03/08 05:23:06;;;;;;;26.08;17.63;;;;;;;;;;5041546;28;20036;-64
2022/03/08 05:25:52;;;;;;;31.27;16.50;;;;;;;;;;5051896;28;20021;-63
2022/03/08 05:28:37;;;;;;;32.22;18.10;;;;;;;;;;5053380;28;20036;-64
2022/03/08 05:31:22;;;;;;;23.80;15.95;;;;;;;;;;5050233;28;20506;-66
2022/03/08 05:34:07;;;;;;;28.80;17.55;;;;;;;;;;5065586;28;20032;-65
2022/03/08 05:36:53;;;;;;;25.65;17.17;;;;;;;;;;5056474;28;20104;-62
2022/03/08 05:39:38;;;;;;;27.10;16.65;;;;;;;;;;5037265;28;20375;-60
2022/03/08 05:42:23;;;;;;;27.23;17.92;;;;;;;;;;5052573;28;20020;-71
2022/03/08 05:45:10;;;;;;;28.63;17.63;;;;;;;;;;5050750;28;20052;-64
2022/03/08 05:47:56;;;;;;;26.88;17.35;;;;;;;;;;5056316;28;20081;-62
2022/03/08 05:50:41;;;;;;;26.60;16.50;;;;;;;;;;5062210;28;20036;-64
2022/03/08 05:53:26;;;;;;;27.52;16.83;;;;;;;;;;5057207;28;20028;-64
2022/03/08 05:56:11;;;;;;;27.35;17.70;;;;;;;;;;5051997;28;20024;-64
2022/03/08 05:58:57;;;;;;;25.08;15.38;;;;;;;;;;5052637;28;20036;-68
2022/03/08 06:01:42;;;;;;;28.90;17.92;;;;;;;;;;5055956;28;20269;-72
2022/03/08 06:04:27;;;;;;;27.13;15.73;;;;;;;;;;5040535;28;20092;-69
2022/03/08 06:07:12;;;;;;;25.50;16.15;;;;;;;;;;5048649;28;20036;-71
2022/03/08 06:09:59;;;;;;;25.00;15.13;;;;;;;;;;5052607;28;20032;-70
2022/03/08 06:12:44;;;;;;;25.65;15.55;;;;;;;;;;5052518;28;20037;-71
2022/03/08 06:15:30;;;;;;;24.95;16.25;;;;;;;;;;5052574;28;20036;-69
2022/03/08 06:18:15;;;;;;;29.77;16.60;;;;;;;;;;5056354;28;20343;-71
2022/03/08 06:21:00;;;;;;;22.77;15.77;;;;;;;;;;5051070;28;20121;-70
2022/03/08 06:23:45;;;;;;;27.05;16.40;;;;;;;;;;5046957;28;20486;-69
2022/03/08 06:26:31;;;;;;;28.35;16.20;;;;;;;;;;5054473;28;20051;-66
2022/03/08 06:29:17;;;;;;;25.90;16.13;;;;;;;;;;5047468;28;20455;-66
2022/03/08 06:32:02;;;;;;;25.55;15.23;;;;;;;;;;5051980;28;20032;-66
2022/03/08 06:34:50;;;;;;;24.13;15.55;;;;;;;;;;5059090;28;20064;-63
2022/03/08 06:37:35;;;;;;;25.13;14.73;;;;;;;;;;5050268;28;20078;-64
2022/03/08 06:40:21;;;;;;;24.83;14.48;;;;;;;;;;5049526;28;20041;-65
2022/03/08 06:43:06;;;;;;;28.35;15.10;;;;;;;;;;5047487;28;20073;-65
2022/03/08 06:45:51;;;;;;;24.23;14.73;;;;;;;;;;5052332;28;20124;-68
2022/03/08 06:48:37;;;;;;;24.35;15.02;;;;;;;;;;5051310;28;20025;-68
2022/03/08 06:51:22;;;;;;;24.55;15.27;;;;;;;;;;5050974;28;20036;-66
2022/03/08 06:54:08;;;;;;;25.48;14.63;;;;;;;;;;5056282;28;20471;-60
2022/03/08 06:56:53;;;;;;;24.58;14.95;;;;;;;;;;5049453;28;20068;-67
2022/03/08 06:59:38;;;;;;;24.60;13.88;;;;;;;;;;5050690;28;20028;-66
2022/03/08 07:02:25;;;;;;;28.25;14.45;;;;;;;;;;5047784;28;20037;-67
2022/03/08 07:05:10;;;;;;;27.90;14.27;;;;;;;;;;5046485;28;20066;-67
2022/03/08 07:07:55;;;;;;;23.58;14.40;;;;;;;;;;5057975;28;20036;-66
2022/03/08 07:10:41;;;;;;;23.58;13.27;;;;;;;;;;5051544;28;20043;-67
2022/03/08 07:13:26;;;;;;;26.02;14.60;;;;;;;;;;5054213;28;20027;-62
2022/03/08 07:16:11;;;;;;;23.88;12.57;;;;;;;;;;5055211;28;20025;-64
2022/03/08 07:18:57;;;;;;;23.15;13.40;;;;;;;;;;5050182;28;20036;-65
2022/03/08 07:21:42;;;;;;;23.40;13.80;;;;;;;;;;5056355;28;20501;-67
2022/03/08 07:24:27;;;;;;;19.67;12.65;;;;;;;;;;5054693;28;20037;-64
2022/03/08 07:27:13;;;;;;;25.58;12.65;;;;;;;;;;5061983;28;20028;-66
2022/03/08 07:29:58;;;;;;;19.75;11.98;;;;;;;;;;5061862;28;20024;-62
2022/03/08 07:32:43;;;;;;;20.08;11.93;;;;;;;;;;5066793;28;20391;-76
2022/03/08 07:35:28;;;;;;;21.73;12.55;;;;;;;;;;5054798;28;20067;-75
2022/03/08 07:38:15;;;;;;;17.42;11.45;;;;;;;;;;5067346;28;20031;-75
2022/03/08 07:41:02;;;;;;;19.42;11.55;;;;;;;;;;5056161;28;20028;-73
2022/03/08 07:43:47;;;;;;;18.23;10.55;;;;;;;;;;5055740;28;20032;-75
2022/03/08 07:46:33;;;;;;;15.98;10.02;;;;;;;;;;5055324;28;20039;-73
2022/03/08 07:49:18;;;;;;;19.98;11.70;;;;;;;;;;5054852;28;20850;-69
2022/03/08 07:52:04;;;;;;;17.95;9.80;;;;;;;;;;5035365;28;20498;-68
2022/03/08 07:54:49;;;;;;;19.20;10.75;;;;;;;;;;5037880;28;20085;-68
2022/03/08 07:57:34;;;;;;;18.20;11.07;;;;;;;;;;5052713;28;20091;-70
2022/03/08 08:00:20;;;;;;;15.10;9.57;;;;;;;;;;5040240;28;20036;-68
2022/03/08 08:03:05;;;;;;;15.48;9.68;;;;;;;;;;5054842;28;20063;-70
2022/03/08 08:05:50;;;;;;;16.90;9.77;;;;;;;;;;5050100;28;20177;-71
2022/03/08 08:08:36;;;;;;;17.92;10.63;;;;;;;;;;5051266;28;20134;-69
2022/03/08 08:11:21;;;;;;;14.85;9.00;;;;;;;;;;5052569;28;20039;-58
2022/03/08 08:14:06;;;;;;;18.38;9.35;;;;;;;;;;5055149;28;20264;-61
2022/03/08 08:16:51;;;;;;;15.50;9.13;;;;;;;;;;5048674;28;20048;-62
2022/03/08 08:19:37;;;;;;;13.38;9.18;;;;;;;;;;5040363;28;20028;-64
2022/03/08 08:22:22;;;;;;;15.88;9.23;;;;;;;;;;5050289;28;20032;-61
2022/03/08 08:25:08;;;;;;;13.98;9.45;;;;;;;;;;5054455;28;20037;-68
2022/03/08 08:27:53;;;;;;;16.05;9.55;;;;;;;;;;5053689;28;20085;-61
2022/03/08 08:30:39;;;;;;;15.30;9.13;;;;;;;;;;5054361;28;20107;-65
2022/03/08 08:33:24;;;;;;;13.00;8.38;;;;;;;;;;5047980;28;20514;-66
2022/03/08 08:36:09;;;;;;;17.17;8.32;;;;;;;;;;5053615;28;20032;-67
2022/03/08 08:38:54;;;;;;;12.40;7.97;;;;;;;;;;5050531;28;20032;-66
2022/03/08 08:41:41;;;;;;;14.02;9.00;;;;;;;;;;5086543;28;20033;-63
2022/03/08 08:44:26;;;;;;;10.77;6.78;;;;;;;;;;5057447;28;20609;-69
2022/03/08 08:47:12;;;;;;;10.95;7.13;;;;;;;;;;5067282;28;20092;-70
2022/03/08 08:49:57;;;;;;;12.45;7.07;;;;;;;;;;5058957;28;20589;-71
2022/03/08 08:52:42;;;;;;;13.48;7.38;;;;;;;;;;5064242;28;20047;-73
2022/03/08 08:55:28;;;;;;;14.65;7.93;;;;;;;;;;5039849;28;20119;-70
2022/03/08 08:58:13;;;;;;;10.52;6.90;;;;;;;;;;5042493;28;20480;-69
2022/03/08 09:01:00;;;;;;;12.32;7.15;;;;;;;;;;5034254;28;20029;-74
2022/03/08 09:03:45;;;;;;;10.90;7.47;;;;;;;;;;5047412;28;20036;-74
2022/03/08 09:06:30;;;;;;;12.70;7.03;;;;;;;;;;5053237;28;20070;-64
2022/03/08 09:09:15;;;;;;;10.70;7.05;;;;;;;;;;5051889;28;20032;-63
2022/03/08 09:12:01;;;;;;;10.05;6.45;;;;;;;;;;5055891;28;20032;-62
2022/03/08 09:14:46;;;;;;;9.25;6.40;;;;;;;;;;5060871;28;20044;-66
2022/03/08 09:17:31;;;;;;;10.25;6.32;;;;;;;;;;5064266;28;20062;-66
2022/03/08 09:20:16;;;;;;;8.40;6.65;;;;;;;;;;5053904;28;20033;-65
2022/03/08 09:23:02;;;;;;;15.32;7.28;;;;;;;;;;5039144;28;20054;-69
2022/03/08 09:25:47;;;;;;;10.18;6.35;;;;;;;;;;5053690;28;20044;-68
2022/03/08 09:28:32;;;;;;;10.13;6.35;;;;;;;;;;5079927;28;20029;-68
2022/03/08 09:31:18;;;;;;;9.57;5.70;;;;;;;;;;5053709;28;20083;-68
2022/03/08 09:34:03;;;;;;;9.32;6.15;;;;;;;;;;5021607;28;20025;-68
2022/03/08 09:36:48;;;;;;;9.85;6.22;;;;;;;;;;5037847;28;20044;-67
2022/03/08 09:39:34;;;;;;;9.52;5.88;;;;;;;;;;5047029;28;20382;-71
2022/03/08 09:42:20;;;;;;;10.45;5.55;;;;;;;;;;5052515;28;20032;-65
2022/03/08 09:45:06;;;;;;;9.45;5.95;;;;;;;;;;5053370;28;20094;-61
2022/03/08 09:47:51;;;;;;;11.50;6.00;;;;;;;;;;5058019;28;20632;-63
2022/03/08 09:50:36;;;;;;;9.82;6.43;;;;;;;;;;5051617;28;20025;-61
2022/03/08 09:53:22;;;;;;;9.18;5.40;;;;;;;;;;5051028;28;20438;-68
2022/03/08 09:56:08;;;;;;;11.15;5.75;;;;;;;;;;5037595;28;20042;-66
2022/03/08 09:58:53;;;;;;;11.68;6.35;;;;;;;;;;5053077;28;20126;-67
2022/03/08 10:01:38;;;;;;;8.65;6.10;;;;;;;;;;5051392;28;20158;-70
2022/03/08 10:04:23;;;;;;;8.88;5.80;;;;;;;;;;5049136;28;20115;-71
2022/03/08 10:07:09;;;;;;;9.73;6.47;;;;;;;;;;5061813;28;20513;-70
2022/03/08 10:09:56;;;;;;;7.90;5.18;;;;;;;;;;5034127;28;20025;-68
2022/03/08 10:12:54;;;;;;;9.05;6.32;;;;;;;;;;5040672;28;20302;-69
2022/03/08 10:15:40;;;;;;;8.95;6.20;;;;;;;;;;5049074;28;20043;-76
2022/03/08 10:18:36;;;;;;;9.48;6.07;;;;;;;;;;5060004;28;20275;-65
2022/03/08 10:21:35;;;;;;;11.95;6.55;;;;;;;;;;5027447;28;20068;-73
2022/03/08 10:24:25;;;;;;;9.68;5.57;;;;;;;;;;5032654;28;20063;-73
2022/03/08 10:27:10;;;;;;;8.45;5.80;;;;;;;;;;5064554;28;20067;-77
2022/03/08 10:29:59;;;;;;;9.45;5.95;;;;;;;;;;5052569;28;20058;-78
2022/03/08 10:32:45;;;;;;;8.75;6.05;;;;;;;;;;5051990;28;20070;-80
2022/03/08 10:35:37;;;;;;;7.15;5.53;;;;;;;;;;5053028;28;20048;-65
2022/03/08 10:38:22;;;;;;;9.43;6.13;;;;;;;;;;5052824;28;20084;-66
2022/03/08 10:41:18;;;;;;;8.18;5.45;;;;;;;;;;5053125;28;20033;-66
2022/03/08 10:44:03;;;;;;;8.70;5.43;;;;;;;;;;5047607;28;20064;-64
2022/03/08 10:47:12;;;;;;;8.15;4.88;;;;;;;;;;5040965;28;20028;-65
2022/03/08 10:49:59;;;;;;;7.30;5.40;;;;;;;;;;5044224;28;20312;-65
2022/03/08 10:52:46;;;;;;;10.05;5.72;;;;;;;;;;5038590;28;20379;-70
2022/03/08 10:55:33;;;;;;;8.40;5.18;;;;;;;;;;5058482;28;20021;-71
2022/03/08 10:58:18;;;;;;;9.75;5.13;;;;;;;;;;5043409;28;20028;-72
2022/03/08 11:01:10;;;;;;;7.53;5.35;;;;;;;;;;5060755;28;20074;-74
2022/03/08 11:03:56;;;;;;;9.68;5.50;;;;;;;;;;5040919;28;20032;-64
2022/03/08 11:06:42;;;;;;;9.45;5.55;;;;;;;;;;5045368;28;20100;-61
2022/03/08 11:09:28;;;;;;;11.23;5.25;;;;;;;;;;5053107;28;20032;-61
2022/03/08 11:12:14;;;;;;;7.60;5.28;;;;;;;;;;5049927;28;20107;-60
2022/03/08 11:14:59;;;;;;;9.35;5.32;;;;;;;;;;5057805;28;20036;-62
2022/03/08 11:17:45;;;;;;;8.40;5.18;;;;;;;;;;5057631;28;20095;-59
2022/03/08 11:20:30;;;;;;;10.30;5.55;;;;;;;;;;5058688;28;20055;-60
2022/03/08 11:23:16;;;;;;;8.98;5.10;;;;;;;;;;5065526;28;20029;-60
2022/03/08 11:26:01;;;;;;;8.95;4.85;;;;;;;;;;5058426;28;20062;-58
2022/03/08 11:28:47;;;;;;;7.85;5.03;;;;;;;;;;5059197;28;20032;-60
2022/03/08 11:31:34;;;;;;;7.20;4.68;;;;;;;;;;5058000;28;20032;-63
2022/03/08 11:34:26;;;;;;;8.32;5.10;;;;;;;;;;5057290;28;20097;-61
2022/03/08 11:37:18;;;;;;;9.48;5.40;;;;;;;;;;5057636;28;20028;-61
2022/03/08 11:40:08;;;;;;;8.45;4.60;;;;;;;;;;5076654;28;20515;-59
2022/03/08 11:42:55;;;;;;;6.95;4.60;;;;;;;;;;5071107;28;20024;-61
2022/03/08 11:45:40;;;;;;;7.68;5.03;;;;;;;;;;5057248;28;20070;-59
2022/03/08 11:48:25;;;;;;;8.98;5.10;;;;;;;;;;5057778;28;20040;-58
2022/03/08 11:51:11;;;;;;;9.00;5.47;;;;;;;;;;5044391;28;20064;-63
2022/03/08 11:53:59;;;;;;;8.13;5.38;;;;;;;;;;5059597;28;20041;-65
2022/03/08 11:56:44;;;;;;;7.32;4.60;;;;;;;;;;5056060;28;20565;-63
2022/03/08 11:59:30;;;;;;;10.05;5.85;;;;;;;;;;5054027;28;20040;-63
2022/03/08 12:02:17;;;;;;;8.55;5.75;;;;;;;;;;5052343;28;20120;-71
2022/03/08 12:05:02;;;;;;;9.43;5.47;;;;;;;;;;5041471;28;20028;-69
2022/03/08 12:07:48;;;;;;;9.35;5.38;;;;;;;;;;5049591;28;20102;-71
2022/03/08 12:10:42;;;;;;;7.60;5.28;;;;;;;;;;5068757;28;20111;-64
2022/03/08 12:13:28;;;;;;;11.38;6.20;;;;;;;;;;5044524;28;20056;-64
2022/03/08 12:16:23;;;;;;;8.65;5.20;;;;;;;;;;5055746;28;20036;-63
2022/03/08 12:19:09;;;;;;;10.55;5.88;;;;;;;;;;5054878;28;20043;-64
2022/03/08 12:21:55;;;;;;;10.82;6.18;;;;;;;;;;5052555;28;20028;-65
2022/03/08 12:24:49;;;;;;;9.27;5.82;;;;;;;;;;5058323;28;20020;-69
2022/03/08 12:27:47;;;;;;;11.95;5.78;;;;;;;;;;5074548;28;20580;-67
2022/03/08 12:30:42;;;;;;;13.70;6.57;;;;;;;;;;5064704;28;20040;-68
2022/03/08 12:33:28;;;;;;;10.48;6.15;;;;;;;;;;5049477;28;20040;-67
2022/03/08 12:36:18;;;;;;;9.38;6.18;;;;;;;;;;5054213;28;20436;-68
2022/03/08 12:39:03;;;;;;;10.35;6.43;;;;;;;;;;5052956;28;20025;-68
2022/03/08 12:41:49;;;;;;;11.05;6.22;;;;;;;;;;5056295;28;20510;-67
2022/03/08 12:44:34;;;;;;;7.38;5.82;;;;;;;;;;5065604;28;20023;-67
2022/03/08 12:47:19;;;;;;;9.38;5.65;;;;;;;;;;5059840;28;20056;-66
2022/03/08 12:50:15;;;;;;;9.07;6.65;;;;;;;;;;5054605;28;20074;-69
2022/03/08 12:53:03;;;;;;;9.93;6.18;;;;;;;;;;5053489;28;20024;-68
2022/03/08 12:55:51;;;;;;;9.50;6.47;;;;;;;;;;5034376;28;20025;-70
2022/03/08 12:58:40;;;;;;;12.10;6.60;;;;;;;;;;5060533;28;20020;-69
2022/03/08 13:01:25;;;;;;;9.23;6.38;;;;;;;;;;5053462;28;20098;-70
2022/03/08 13:04:22;;;;;;;9.77;6.43;;;;;;;;;;5041105;28;20475;-66
2022/03/08 13:07:07;;;;;;;10.77;6.60;;;;;;;;;;5053318;28;20025;-65
2022/03/08 13:09:56;;;;;;;11.80;6.05;;;;;;;;;;5055369;28;20032;-63
2022/03/08 13:12:41;;;;;;;10.13;6.88;;;;;;;;;;5053182;28;20052;-65
2022/03/08 13:15:26;;;;;;;11.93;6.72;;;;;;;;;;5069919;28;20433;-66
2022/03/08 13:18:12;;;;;;;12.15;6.80;;;;;;;;;;5048017;28;20547;-64
2022/03/08 13:20:59;;;;;;;10.93;7.03;;;;;;;;;;5055358;28;20040;-62
2022/03/08 13:23:46;;;;;;;12.07;7.07;;;;;;;;;;5053006;28;20124;-68
2022/03/08 13:26:49;;;;;;;13.32;5.40;;;;;;;;;;5048031;28;20036;-68
2022/03/08 13:29:35;;;;;;;9.32;5.72;;;;;;;;;;5055645;28;20032;-69
2022/03/08 13:32:20;;;;;;;8.82;5.32;;;;;;;;;;5057536;28;20486;-69
2022/03/08 13:35:05;;;;;;;7.57;5.20;;;;;;;;;;5040166;28;20102;-69
2022/03/08 13:37:51;;;;;;;8.98;5.13;;;;;;;;;;5052064;28;20544;-65
2022/03/08 13:40:36;;;;;;;8.38;5.05;;;;;;;;;;5040622;28;20071;-70
2022/03/08 13:43:22;;;;;;;9.00;5.18;;;;;;;;;;5051401;28;20039;-70
2022/03/08 13:46:09;;;;;;;10.93;4.85;;;;;;;;;;5052978;28;20039;-71
2022/03/08 13:48:57;;;;;;;10.65;5.07;;;;;;;;;;5052151;28;20682;-69
2022/03/08 13:51:43;;;;;;;9.20;4.80;;;;;;;;;;5057192;28;20027;-70
2022/03/08 13:54:35;;;;;;;9.57;5.93;;;;;;;;;;5050461;28;20044;-70
2022/03/08 13:57:21;;;;;;;9.80;4.82;;;;;;;;;;5049557;28;20033;-68
2022/03/08 14:00:07;;;;;;;7.97;5.05;;;;;;;;;;5045848;28;20040;-64
2022/03/08 14:02:53;;;;;;;7.32;4.75;;;;;;;;;;5060592;28;20024;-68
2022/03/08 14:06:02;;;;;;;8.15;5.68;;;;;;;;;;5052308;28;20032;-69
2022/03/08 14:08:48;;;;;;;10.02;5.85;;;;;;;;;;5054046;28;20064;-68
2022/03/08 14:11:33;;;;;;;11.05;6.07;;;;;;;;;;5062861;28;20408;-67
2022/03/08 14:14:20;;;;;;;8.45;5.53;;;;;;;;;;5069139;28;20111;-66
2022/03/08 14:17:05;;;;;;;10.38;6.22;;;;;;;;;;5052569;28;20049;-72
2022/03/08 14:19:53;;;;;;;12.15;6.38;;;;;;;;;;5037416;28;20051;-69
2022/03/08 14:22:57;;;;;;;9.50;6.07;;;;;;;;;;5043263;28;20391;-67
2022/03/08 14:25:59;;;;;;;12.77;6.22;;;;;;;;;;5050915;28;20025;-68
2022/03/08 14:28:44;;;;;;;9.07;6.10;;;;;;;;;;5044008;28;20033;-68
2022/03/08 14:31:34;;;;;;;8.43;5.95;;;;;;;;;;5062400;28;20493;-68
2022/03/08 14:34:20;;;;;;;12.55;5.70;;;;;;;;;;5058966;28;20083;-70
2022/03/08 14:37:12;;;;;;;10.93;6.38;;;;;;;;;;5050200;28;20040;-70
2022/03/08 14:39:59;;;;;;;10.55;6.60;;;;;;;;;;5057009;28;20122;-67
2022/03/08 14:42:44;;;;;;;11.50;7.22;;;;;;;;;;5032580;28;20511;-68
2022/03/08 14:45:29;;;;;;;13.85;6.85;;;;;;;;;;5051296;28;20468;-68
2022/03/08 14:48:14;;;;;;;9.55;6.35;;;;;;;;;;5052339;28;20032;-66
2022/03/08 14:51:00;;;;;;;10.68;6.65;;;;;;;;;;5051052;28;20051;-68
2022/03/08 14:53:45;;;;;;;11.90;6.75;;;;;;;;;;5042329;28;20032;-68
2022/03/08 14:56:30;;;;;;;13.10;6.70;;;;;;;;;;5050252;28;20542;-66
2022/03/08 14:59:16;;;;;;;11.05;7.25;;;;;;;;;;5052290;28;20033;-67
2022/03/08 15:02:01;;;;;;;9.50;6.72;;;;;;;;;;5051263;28;20038;-69
2022/03/08 15:04:47;;;;;;;11.50;7.30;;;;;;;;;;5052168;28;20039;-69
2022/03/08 15:07:33;;;;;;;9.57;6.65;;;;;;;;;;5058457;28;20025;-68
2022/03/08 15:10:18;;;;;;;24.23;14.98;;;;;;;;;;5066784;28;20040;-66
2022/03/08 15:13:03;;;;;;;14.90;8.68;;;;;;;;;;5054328;28;20085;-65
2022/03/08 15:15:50;;;;;;;9.73;6.43;;;;;;;;;;5058739;28;20044;-74
2022/03/08 15:18:35;;;;;;;12.55;6.78;;;;;;;;;;5056960;28;20246;-74
2022/03/08 15:21:22;;;;;;;10.18;6.25;;;;;;;;;;5054624;28;20032;-73
2022/03/08 15:24:07;;;;;;;9.90;5.88;;;;;;;;;;5052778;28;20033;-72
2022/03/08 15:26:52;;;;;;;8.68;5.30;;;;;;;;;;5054678;28;20035;-74
2022/03/08 15:29:38;;;;;;;9.30;5.72;;;;;;;;;;5055543;28;20063;-69
2022/03/08 15:32:23;;;;;;;8.30;5.05;;;;;;;;;;5069277;28;20411;-64
2022/03/08 15:35:09;;;;;;;10.57;5.50;;;;;;;;;;5049617;28;20064;-65
2022/03/08 15:37:54;;;;;;;10.52;4.75;;;;;;;;;;5068210;28;20095;-66
2022/03/08 15:40:39;;;;;;;7.60;5.32;;;;;;;;;;5058109;28;20324;-65
2022/03/08 15:43:25;;;;;;;8.77;5.10;;;;;;;;;;5043673;28;20170;-65
2022/03/08 15:46:11;;;;;;;6.90;4.65;;;;;;;;;;5054990;28;20059;-65
2022/03/08 15:48:56;;;;;;;8.68;5.45;;;;;;;;;;5058808;28;20063;-70
2022/03/08 15:51:41;;;;;;;9.68;4.93;;;;;;;;;;5054946;28;20039;-70
2022/03/08 15:54:26;;;;;;;9.02;5.72;;;;;;;;;;5054950;28;20117;-68
2022/03/08 15:57:12;;;;;;;8.90;4.78;;;;;;;;;;5061097;28;20502;-67
2022/03/08 15:59:57;;;;;;;8.93;5.65;;;;;;;;;;5052411;28;20050;-68
2022/03/08 16:02:42;;;;;;;11.20;5.20;;;;;;;;;;5048298;28;20471;-69
2022/03/08 16:05:27;;;;;;;13.00;5.90;;;;;;;;;;5052049;28;20506;-69
2022/03/08 16:08:13;;;;;;;9.15;4.97;;;;;;;;;;5055289;28;20173;-68
2022/03/08 16:11:01;;;;;;;10.93;5.85;;;;;;;;;;5063058;28;20200;-64
2022/03/08 16:13:46;;;;;;;9.98;5.43;;;;;;;;;;5055138;28;20098;-66
2022/03/08 16:16:31;;;;;;;13.45;5.68;;;;;;;;;;5034627;28;20025;-67
2022/03/08 16:19:16;;;;;;;9.02;4.82;;;;;;;;;;5040685;28;20032;-68
2022/03/08 16:22:02;;;;;;;10.15;5.30;;;;;;;;;;5054958;28;20031;-66